Time;durP1;ratioP1;P1;durP2;ratioP2;P2;SDS_P1;SDS_P2;PMS_P1;PMS_P2;Temp;Humidity;BMP_temperature;BMP_pressure;BME280_temperature;BME280_humidity;BME280_pressure;Samples;Min_cycle;Max_cycle;Signal;HPM_P1;HPM_P2
2023/01/07 00:01:29;;;;;;;0.15;0.15;;;;;;;;;;5048200;28;20091;-60
2023/01/07 00:03:58;;;;;;;0.80;0.55;;;;;;;;;;5045981;28;20124;-60
2023/01/07 00:06:27;;;;;;;1.02;0.43;;;;;;;;;;5056293;28;20055;-61
2023/01/07 00:08:56;;;;;;;0.80;0.30;;;;;;;;;;5047039;28;20127;-61
2023/01/07 00:11:27;;;;;;;1.25;0.52;;;;;;;;;;5053996;28;20498;-62
2023/01/07 00:13:56;;;;;;;1.05;0.50;;;;;;;;;;5049739;28;20516;-62
2023/01/07 00:16:25;;;;;;;2.45;0.60;;;;;;;;;;5052461;28;20053;-62
2023/01/07 00:18:54;;;;;;;0.52;0.40;;;;;;;;;;5051467;28;20037;-62
2023/01/07 00:21:23;;;;;;;0.35;0.25;;;;;;;;;;5051106;28;20053;-63
2023/01/07 00:23:54;;;;;;;5.38;0.77;;;;;;;;;;5054451;28;20508;-60
2023/01/07 00:26:23;;;;;;;2.95;0.30;;;;;;;;;;5052771;28;20152;-60
2023/01/07 00:28:53;;;;;;;0.50;0.50;;;;;;;;;;5051633;28;20045;-60
2023/01/07 00:31:22;;;;;;;0.60;0.60;;;;;;;;;;5051667;28;20049;-63
2023/01/07 00:34:05;;;;;;;0.50;0.50;;;;;;;;;;5053943;28;20401;-60
2023/01/07 00:36:34;;;;;;;0.20;0.20;;;;;;;;;;5047545;28;20442;-60
2023/01/07 00:39:04;;;;;;;3.55;0.75;;;;;;;;;;5053020;28;20056;-60
2023/01/07 00:41:32;;;;;;;0.43;0.43;;;;;;;;;;5056657;28;20071;-61
2023/01/07 00:44:02;;;;;;;1.52;0.73;;;;;;;;;;5060564;28;20041;-61
2023/01/07 00:46:30;;;;;;;3.70;0.60;;;;;;;;;;5053123;28;20045;-60
2023/01/07 00:49:00;;;;;;;1.35;0.63;;;;;;;;;;5051722;28;20493;-60
2023/01/07 00:51:28;;;;;;;0.57;0.40;;;;;;;;;;5053372;28;20053;-60
2023/01/07 00:53:56;;;;;;;1.40;0.65;;;;;;;;;;5052953;28;20053;-60
2023/01/07 00:56:25;;;;;;;0.60;0.50;;;;;;;;;;5052342;28;20053;-62
2023/01/07 00:58:53;;;;;;;0.85;0.70;;;;;;;;;;5049292;28;20045;-62
2023/01/07 01:01:22;;;;;;;0.52;0.30;;;;;;;;;;5054417;28;20062;-61
2023/01/07 01:03:51;;;;;;;0.50;0.50;;;;;;;;;;5051551;28;20048;-61
2023/01/07 01:06:19;;;;;;;0.85;0.60;;;;;;;;;;5053417;28;20135;-61
2023/01/07 01:08:48;;;;;;;3.10;0.40;;;;;;;;;;5049245;28;20056;-61
2023/01/07 01:11:16;;;;;;;2.50;0.77;;;;;;;;;;5052377;28;20055;-61
2023/01/07 01:13:46;;;;;;;3.60;0.85;;;;;;;;;;5053500;28;20056;-61
2023/01/07 01:16:18;;;;;;;1.45;0.38;;;;;;;;;;5051691;28;20053;-61
2023/01/07 01:18:48;;;;;;;0.68;0.38;;;;;;;;;;5050087;28;20119;-61
2023/01/07 01:21:17;;;;;;;0.55;0.50;;;;;;;;;;5060504;28;20045;-61
2023/01/07 01:23:46;;;;;;;0.30;0.30;;;;;;;;;;5045264;28;20045;-61
2023/01/07 01:26:15;;;;;;;1.13;0.47;;;;;;;;;;5054887;28;20041;-61
2023/01/07 01:28:43;;;;;;;1.55;0.73;;;;;;;;;;5049336;28;20071;-62
2023/01/07 01:31:11;;;;;;;0.28;0.28;;;;;;;;;;5052447;28;20079;-61
2023/01/07 01:33:40;;;;;;;1.00;0.38;;;;;;;;;;5052315;28;20051;-61
2023/01/07 01:36:11;;;;;;;0.55;0.50;;;;;;;;;;5056866;28;20056;-62
2023/01/07 01:38:40;;;;;;;2.22;0.60;;;;;;;;;;5051813;28;20048;-61
2023/01/07 01:41:08;;;;;;;1.45;0.63;;;;;;;;;;5054073;28;20049;-61
2023/01/07 01:43:37;;;;;;;0.85;0.35;;;;;;;;;;5047660;28;20429;-61
2023/01/07 01:46:06;;;;;;;0.82;0.47;;;;;;;;;;5052427;28;20410;-61
2023/01/07 01:48:36;;;;;;;1.42;0.65;;;;;;;;;;5054106;28;20698;-61
2023/01/07 01:51:04;;;;;;;1.95;0.50;;;;;;;;;;5051930;28;20041;-61
2023/01/07 01:53:35;;;;;;;11.43;0.80;;;;;;;;;;5053292;28;20044;-61
2023/01/07 01:56:08;;;;;;;0.50;0.43;;;;;;;;;;5052738;28;20041;-61
2023/01/07 01:58:37;;;;;;;2.40;0.95;;;;;;;;;;5047683;28;20998;-62
2023/01/07 02:01:06;;;;;;;0.52;0.52;;;;;;;;;;5051499;28;20059;-60
2023/01/07 02:03:35;;;;;;;0.30;0.20;;;;;;;;;;5053930;28;20497;-61
2023/01/07 02:06:04;;;;;;;0.55;0.22;;;;;;;;;;5048799;28;20057;-61
2023/01/07 02:08:34;;;;;;;0.80;0.80;;;;;;;;;;5048177;28;20047;-61
2023/01/07 02:11:07;;;;;;;0.35;0.30;;;;;;;;;;5047073;28;20064;-60
2023/01/07 02:13:41;;;;;;;0.40;0.40;;;;;;;;;;5053673;28;20136;-61
2023/01/07 02:16:12;;;;;;;0.32;0.32;;;;;;;;;;5053804;28;20051;-61
2023/01/07 02:18:45;;;;;;;0.45;0.28;;;;;;;;;;5050236;28;20127;-61
2023/01/07 02:21:32;;;;;;;0.60;0.45;;;;;;;;;;5047703;28;20552;-61
2023/01/07 02:24:27;;;;;;;0.90;0.52;;;;;;;;;;5042309;28;20055;-61
2023/01/07 02:27:07;;;;;;;0.10;0.10;;;;;;;;;;5050137;28;20064;-61
2023/01/07 02:30:01;;;;;;;0.70;0.47;;;;;;;;;;5049519;28;20065;-61
2023/01/07 02:32:43;;;;;;;0.70;0.40;;;;;;;;;;5047582;28;20049;-61
2023/01/07 02:35:16;;;;;;;0.55;0.50;;;;;;;;;;5039188;28;20064;-61
2023/01/07 02:37:47;;;;;;;3.13;0.52;;;;;;;;;;5050060;28;20052;-61
2023/01/07 02:40:21;;;;;;;1.58;0.88;;;;;;;;;;5053420;28;20056;-61
2023/01/07 02:42:54;;;;;;;1.10;0.50;;;;;;;;;;5049121;28;20060;-61
2023/01/07 02:45:26;;;;;;;0.30;0.30;;;;;;;;;;5048809;28;20083;-61
2023/01/07 02:47:58;;;;;;;0.20;0.20;;;;;;;;;;5048880;28;20136;-61
2023/01/07 02:50:26;;;;;;;0.30;0.30;;;;;;;;;;5047565;28;20064;-62
2023/01/07 02:52:54;;;;;;;2.30;0.50;;;;;;;;;;5050200;28;20060;-61
2023/01/07 02:55:25;;;;;;;0.32;0.30;;;;;;;;;;5050516;28;20053;-61
2023/01/07 02:58:06;;;;;;;4.40;0.70;;;;;;;;;;5050364;28;20049;-61
2023/01/07 03:00:52;;;;;;;0.93;0.30;;;;;;;;;;5043222;28;20049;-61
2023/01/07 03:03:30;;;;;;;1.95;0.70;;;;;;;;;;5043758;28;20037;-61
2023/01/07 03:06:05;;;;;;;1.80;0.65;;;;;;;;;;5045550;28;20409;-61
2023/01/07 03:08:42;;;;;;;0.55;0.20;;;;;;;;;;5050474;28;20135;-61
2023/01/07 03:11:10;;;;;;;0.35;0.35;;;;;;;;;;5053525;28;20048;-61
2023/01/07 03:13:41;;;;;;;0.90;0.50;;;;;;;;;;5049964;28;20064;-61
2023/01/07 03:16:12;;;;;;;0.25;0.25;;;;;;;;;;5050645;28;20049;-61
2023/01/07 03:18:46;;;;;;;0.47;0.40;;;;;;;;;;5050114;28;20044;-61
2023/01/07 03:21:17;;;;;;;1.00;0.38;;;;;;;;;;5046757;28;20504;-61
2023/01/07 03:23:49;;;;;;;0.43;0.40;;;;;;;;;;5050770;28;20064;-61
2023/01/07 03:26:19;;;;;;;0.88;0.68;;;;;;;;;;5053029;28;20559;-61
2023/01/07 03:28:48;;;;;;;0.25;0.25;;;;;;;;;;5050045;28;20045;-62
2023/01/07 03:31:16;;;;;;;0.60;0.30;;;;;;;;;;5048599;28;20521;-61
2023/01/07 03:33:48;;;;;;;1.17;0.43;;;;;;;;;;5049091;28;20057;-61
2023/01/07 03:36:18;;;;;;;0.75;0.52;;;;;;;;;;5047910;28;20378;-61
2023/01/07 03:38:47;;;;;;;0.95;0.30;;;;;;;;;;5049934;28;20049;-62
2023/01/07 03:43:57;;;;;;;1.25;0.55;;;;;;;;;;5030495;28;20053;-61
2023/01/07 03:46:26;;;;;;;0.63;0.63;;;;;;;;;;5029650;28;20045;-62
2023/01/07 03:48:55;;;;;;;0.60;0.38;;;;;;;;;;5029546;28;20397;-61
2023/01/07 03:51:24;;;;;;;0.30;0.30;;;;;;;;;;5034126;28;20124;-61
2023/01/07 03:53:52;;;;;;;0.40;0.40;;;;;;;;;;5022055;28;20044;-61
2023/01/07 03:56:20;;;;;;;0.57;0.50;;;;;;;;;;5029620;28;20288;-61
2023/01/07 03:58:48;;;;;;;0.20;0.20;;;;;;;;;;5036813;28;20136;-62
2023/01/07 04:01:17;;;;;;;0.65;0.57;;;;;;;;;;5019035;28;20088;-61
2023/01/07 04:03:45;;;;;;;1.75;0.88;;;;;;;;;;5027590;28;20084;-61
2023/01/07 04:06:15;;;;;;;1.35;0.52;;;;;;;;;;5029175;28;20060;-62
2023/01/07 04:08:43;;;;;;;2.92;0.40;;;;;;;;;;5029300;28;20045;-61
2023/01/07 04:11:12;;;;;;;0.40;0.40;;;;;;;;;;5030498;28;20054;-61
2023/01/07 04:13:40;;;;;;;0.40;0.30;;;;;;;;;;5026889;28;20051;-61
2023/01/07 04:16:09;;;;;;;0.82;0.40;;;;;;;;;;5030919;28;20056;-61
2023/01/07 04:18:37;;;;;;;0.68;0.50;;;;;;;;;;5029691;28;20041;-61
2023/01/07 04:21:05;;;;;;;1.98;0.45;;;;;;;;;;5030315;28;20054;-62
2023/01/07 04:23:35;;;;;;;0.73;0.40;;;;;;;;;;5029529;28;20128;-61
2023/01/07 04:26:04;;;;;;;1.67;0.50;;;;;;;;;;5028527;28;20045;-61
2023/01/07 04:28:32;;;;;;;1.38;0.50;;;;;;;;;;5027447;28;20052;-61
2023/01/07 04:31:00;;;;;;;1.10;0.38;;;;;;;;;;5029080;28;20042;-61
2023/01/07 04:33:29;;;;;;;0.22;0.22;;;;;;;;;;5030468;28;20516;-61
2023/01/07 04:35:57;;;;;;;0.20;0.20;;;;;;;;;;5035459;28;20109;-61
2023/01/07 04:38:25;;;;;;;3.20;0.90;;;;;;;;;;5027355;28;20056;-61
2023/01/07 04:40:55;;;;;;;0.20;0.20;;;;;;;;;;5030500;28;20500;-61
2023/01/07 04:43:23;;;;;;;0.25;0.25;;;;;;;;;;5043204;28;20057;-61
2023/01/07 04:45:52;;;;;;;0.52;0.50;;;;;;;;;;5048874;28;20076;-61
2023/01/07 04:48:20;;;;;;;1.55;0.63;;;;;;;;;;5046658;28;20140;-61
2023/01/07 04:50:48;;;;;;;1.95;0.50;;;;;;;;;;5049682;28;20548;-62
2023/01/07 04:53:16;;;;;;;0.35;0.35;;;;;;;;;;5048473;28;20402;-61
2023/01/07 04:55:45;;;;;;;0.55;0.30;;;;;;;;;;5052184;28;20045;-62
2023/01/07 04:58:15;;;;;;;0.30;0.30;;;;;;;;;;5056463;28;20041;-61
2023/01/07 05:00:43;;;;;;;0.30;0.30;;;;;;;;;;5047259;28;20071;-61
2023/01/07 05:03:11;;;;;;;0.50;0.40;;;;;;;;;;5049131;28;20045;-61
2023/01/07 05:05:39;;;;;;;0.30;0.30;;;;;;;;;;5052677;28;20048;-61
2023/01/07 05:08:08;;;;;;;0.95;0.60;;;;;;;;;;5049330;28;20045;-61
2023/01/07 05:10:36;;;;;;;1.55;0.63;;;;;;;;;;5044736;28;20055;-62
2023/01/07 05:13:05;;;;;;;2.28;0.70;;;;;;;;;;5057070;28;20047;-61
2023/01/07 05:15:35;;;;;;;1.02;0.35;;;;;;;;;;5051766;28;20057;-61
2023/01/07 05:18:06;;;;;;;0.43;0.32;;;;;;;;;;5051917;28;20397;-62
2023/01/07 05:20:34;;;;;;;1.70;0.88;;;;;;;;;;5047744;28;20045;-61
2023/01/07 05:23:02;;;;;;;0.20;0.20;;;;;;;;;;5050934;28;20048;-61
2023/01/07 05:25:31;;;;;;;1.38;0.52;;;;;;;;;;5049652;28;20044;-61
2023/01/07 05:27:59;;;;;;;1.15;0.50;;;;;;;;;;5046411;28;20053;-61
2023/01/07 05:30:27;;;;;;;0.30;0.20;;;;;;;;;;5048126;28;20603;-61
2023/01/07 05:32:57;;;;;;;0.52;0.40;;;;;;;;;;5050721;28;20164;-60
2023/01/07 05:35:25;;;;;;;0.38;0.32;;;;;;;;;;5050805;28;20052;-61
2023/01/07 05:37:53;;;;;;;0.63;0.40;;;;;;;;;;5051246;28;20041;-61
2023/01/07 05:40:22;;;;;;;0.77;0.40;;;;;;;;;;5052337;28;20421;-61
2023/01/07 05:42:50;;;;;;;10.63;0.65;;;;;;;;;;5046877;28;20060;-61
2023/01/07 05:45:20;;;;;;;1.13;0.40;;;;;;;;;;5051141;28;20057;-61
2023/01/07 05:47:49;;;;;;;1.08;0.60;;;;;;;;;;5056344;28;20053;-61
2023/01/07 05:50:18;;;;;;;0.32;0.32;;;;;;;;;;5051588;28;20041;-61
2023/01/07 05:52:47;;;;;;;0.85;0.63;;;;;;;;;;5053983;28;20049;-61
2023/01/07 05:55:15;;;;;;;0.40;0.40;;;;;;;;;;5051617;28;20057;-61
2023/01/07 05:57:43;;;;;;;0.52;0.40;;;;;;;;;;5060204;28;20055;-61
2023/01/07 06:00:12;;;;;;;0.35;0.30;;;;;;;;;;5048301;28;20460;-61
2023/01/07 06:02:41;;;;;;;1.40;0.73;;;;;;;;;;5057008;28;20217;-61
2023/01/07 06:05:10;;;;;;;1.73;0.80;;;;;;;;;;5046389;28;20500;-61
2023/01/07 06:07:40;;;;;;;0.20;0.20;;;;;;;;;;5050031;28;20554;-61
2023/01/07 06:10:10;;;;;;;1.02;0.60;;;;;;;;;;5052192;28;20057;-61
2023/01/07 06:12:38;;;;;;;0.25;0.20;;;;;;;;;;5059763;28;20045;-61
2023/01/07 06:15:07;;;;;;;1.85;0.80;;;;;;;;;;5049972;28;20508;-62
2023/01/07 06:17:35;;;;;;;0.65;0.65;;;;;;;;;;5044147;28;20056;-61
2023/01/07 06:20:04;;;;;;;0.28;0.28;;;;;;;;;;5045764;28;20053;-61
2023/01/07 06:22:32;;;;;;;0.75;0.75;;;;;;;;;;5051279;28;20171;-61
2023/01/07 06:25:02;;;;;;;0.40;0.40;;;;;;;;;;5050587;28;20056;-61
2023/01/07 06:27:30;;;;;;;0.52;0.35;;;;;;;;;;5052305;28;20045;-61
2023/01/07 06:29:59;;;;;;;0.52;0.52;;;;;;;;;;5048741;28;20428;-61
2023/01/07 06:32:27;;;;;;;0.25;0.25;;;;;;;;;;5043705;28;20053;-61
2023/01/07 06:34:55;;;;;;;0.47;0.47;;;;;;;;;;5046690;28;20139;-62
2023/01/07 06:37:23;;;;;;;0.47;0.47;;;;;;;;;;5046765;28;20053;-61
2023/01/07 06:39:52;;;;;;;0.43;0.30;;;;;;;;;;5046602;28;20287;-62
2023/01/07 06:42:21;;;;;;;1.00;0.65;;;;;;;;;;5052182;28;20052;-62
2023/01/07 06:44:50;;;;;;;0.40;0.40;;;;;;;;;;5046522;28;20390;-61
2023/01/07 06:47:18;;;;;;;0.30;0.30;;;;;;;;;;5048797;28;20144;-61
2023/01/07 06:49:46;;;;;;;1.25;0.28;;;;;;;;;;5047823;28;20113;-61
2023/01/07 06:52:15;;;;;;;0.47;0.25;;;;;;;;;;5047916;28;20059;-62
2023/01/07 06:54:43;;;;;;;1.30;0.30;;;;;;;;;;5046602;28;20048;-62
2023/01/07 06:57:14;;;;;;;0.45;0.35;;;;;;;;;;5049277;28;20080;-62
2023/01/07 06:59:43;;;;;;;0.50;0.50;;;;;;;;;;5045135;28;20049;-61
2023/01/07 07:02:17;;;;;;;0.20;0.20;;;;;;;;;;5045324;28;20071;-61
2023/01/07 07:04:46;;;;;;;0.20;0.20;;;;;;;;;;5048229;28;20045;-61
2023/01/07 07:07:14;;;;;;;0.82;0.57;;;;;;;;;;5042310;28;20051;-64
2023/01/07 07:09:43;;;;;;;0.68;0.68;;;;;;;;;;5047380;28;20052;-61
2023/01/07 07:12:11;;;;;;;0.50;0.50;;;;;;;;;;5061281;28;20044;-61
2023/01/07 07:14:40;;;;;;;0.77;0.43;;;;;;;;;;5047657;28;20571;-61
2023/01/07 07:17:10;;;;;;;0.28;0.28;;;;;;;;;;5047010;28;20044;-62
2023/01/07 07:19:38;;;;;;;0.52;0.40;;;;;;;;;;5039804;28;20053;-62
2023/01/07 07:22:06;;;;;;;4.53;0.95;;;;;;;;;;5050891;28;20134;-61
2023/01/07 07:24:34;;;;;;;0.40;0.35;;;;;;;;;;5048813;28;20747;-63
2023/01/07 07:27:03;;;;;;;0.20;0.20;;;;;;;;;;5052436;28;20040;-62
2023/01/07 07:29:31;;;;;;;0.82;0.63;;;;;;;;;;5053154;28;20052;-62
2023/01/07 07:31:59;;;;;;;0.85;0.50;;;;;;;;;;5043336;28;20099;-61
2023/01/07 07:34:29;;;;;;;0.20;0.20;;;;;;;;;;5043509;28;20091;-61
2023/01/07 07:36:57;;;;;;;0.30;0.30;;;;;;;;;;5040081;28;20504;-61
2023/01/07 07:39:26;;;;;;;0.98;0.73;;;;;;;;;;5044285;28;20420;-61
2023/01/07 07:41:54;;;;;;;0.40;0.30;;;;;;;;;;5046054;28;20504;-61
2023/01/07 07:44:22;;;;;;;1.27;0.47;;;;;;;;;;5041355;28;20531;-61
2023/01/07 07:46:51;;;;;;;0.30;0.30;;;;;;;;;;5039488;28;20172;-61
2023/01/07 07:49:19;;;;;;;3.97;0.60;;;;;;;;;;5043227;28;20053;-61
2023/01/07 07:51:49;;;;;;;0.22;0.22;;;;;;;;;;5041364;28;20053;-61
2023/01/07 07:54:17;;;;;;;0.30;0.30;;;;;;;;;;5039432;28;20053;-62
2023/01/07 07:56:45;;;;;;;0.30;0.30;;;;;;;;;;5042082;28;20166;-62
2023/01/07 07:59:13;;;;;;;0.65;0.40;;;;;;;;;;5043052;28;20052;-62
2023/01/07 08:01:42;;;;;;;0.47;0.47;;;;;;;;;;5042655;28;20063;-62
2023/01/07 08:04:10;;;;;;;0.45;0.38;;;;;;;;;;5045716;28;20052;-62
2023/01/07 08:06:38;;;;;;;0.20;0.20;;;;;;;;;;5043576;28;20757;-62
2023/01/07 08:09:08;;;;;;;0.20;0.20;;;;;;;;;;5045324;28;20056;-62
2023/01/07 08:11:37;;;;;;;0.47;0.43;;;;;;;;;;5045242;28;20053;-62
2023/01/07 08:14:05;;;;;;;0.10;0.10;;;;;;;;;;5043885;28;20053;-63
2023/01/07 08:16:33;;;;;;;0.30;0.30;;;;;;;;;;5045602;28;20049;-61
2023/01/07 08:19:02;;;;;;;0.43;0.43;;;;;;;;;;5044529;28;20060;-62
2023/01/07 08:21:30;;;;;;;5.10;0.60;;;;;;;;;;5046044;28;20063;-62
2023/01/07 08:23:59;;;;;;;0.40;0.40;;;;;;;;;;5050019;28;20046;-61
2023/01/07 08:26:28;;;;;;;2.28;0.73;;;;;;;;;;5045792;28;20071;-63
2023/01/07 08:28:57;;;;;;;0.70;0.70;;;;;;;;;;5042850;28;20404;-61
2023/01/07 08:31:25;;;;;;;0.30;0.30;;;;;;;;;;5038208;28;20057;-63
2023/01/07 08:33:54;;;;;;;0.93;0.93;;;;;;;;;;5038770;28;20144;-63
2023/01/07 08:36:22;;;;;;;0.28;0.28;;;;;;;;;;5037771;28;20487;-62
2023/01/07 08:38:52;;;;;;;0.60;0.50;;;;;;;;;;5047960;28;20531;-62
2023/01/07 08:41:20;;;;;;;0.65;0.65;;;;;;;;;;5049142;28;20563;-61
2023/01/07 08:43:51;;;;;;;0.20;0.20;;;;;;;;;;5049336;28;20064;-62
2023/01/07 08:46:19;;;;;;;0.82;0.75;;;;;;;;;;5048682;28;20497;-62
2023/01/07 08:48:47;;;;;;;0.60;0.40;;;;;;;;;;5047689;28;20074;-60
2023/01/07 08:51:16;;;;;;;0.40;0.38;;;;;;;;;;5046612;28;20048;-61
2023/01/07 08:53:44;;;;;;;4.20;0.88;;;;;;;;;;5046416;28;20361;-61
2023/01/07 08:56:12;;;;;;;3.47;0.95;;;;;;;;;;5048550;28;20057;-60
2023/01/07 08:58:41;;;;;;;1.35;0.32;;;;;;;;;;5044664;28;20048;-61
2023/01/07 09:01:11;;;;;;;0.57;0.52;;;;;;;;;;5048858;28;20078;-60
2023/01/07 09:03:39;;;;;;;0.93;0.43;;;;;;;;;;5045649;28;20046;-60
2023/01/07 09:06:08;;;;;;;1.35;0.73;;;;;;;;;;5377127;22;20463;-78
2023/01/07 09:08:37;;;;;;;1.30;0.50;;;;;;;;;;5056424;28;20056;-79
2023/01/07 09:11:06;;;;;;;0.40;0.40;;;;;;;;;;5063291;28;20077;-79
2023/01/07 09:13:34;;;;;;;0.47;0.32;;;;;;;;;;5062543;28;20136;-80
2023/01/07 09:16:03;;;;;;;0.88;0.60;;;;;;;;;;5066860;28;20508;-81
2023/01/07 09:18:33;;;;;;;3.50;0.68;;;;;;;;;;5062651;28;20413;-82
2023/01/07 09:21:01;;;;;;;0.75;0.68;;;;;;;;;;5068368;28;20083;-79
2023/01/07 09:23:29;;;;;;;0.77;0.70;;;;;;;;;;5064942;28;20057;-79
2023/01/07 09:25:58;;;;;;;2.75;1.20;;;;;;;;;;5064097;28;20132;-79
2023/01/07 09:28:26;;;;;;;2.08;0.85;;;;;;;;;;5062128;28;20057;-79
2023/01/07 09:30:55;;;;;;;0.80;0.73;;;;;;;;;;5067063;28;20081;-79
2023/01/07 09:33:24;;;;;;;3.53;0.65;;;;;;;;;;5059257;28;20084;-79
2023/01/07 09:35:54;;;;;;;1.42;0.70;;;;;;;;;;5067707;28;20045;-79
2023/01/07 09:38:22;;;;;;;0.82;0.82;;;;;;;;;;5066859;28;20439;-79
2023/01/07 09:40:51;;;;;;;1.15;0.68;;;;;;;;;;5062395;28;20054;-79
2023/01/07 09:43:23;;;;;;;0.40;0.40;;;;;;;;;;5063603;28;20056;-79
2023/01/07 09:45:54;;;;;;;0.95;0.88;;;;;;;;;;5062131;28;20075;-79
2023/01/07 09:48:25;;;;;;;0.30;0.30;;;;;;;;;;5071752;28;20064;-79
2023/01/07 09:50:57;;;;;;;0.90;0.40;;;;;;;;;;5066732;28;20050;-79
2023/01/07 09:53:28;;;;;;;0.82;0.65;;;;;;;;;;5336980;22;20055;-79
2023/01/07 09:55:56;;;;;;;1.77;0.93;;;;;;;;;;5036096;28;20791;-79
2023/01/07 09:58:41;;;;;;;2.33;0.75;;;;;;;;;;5042170;28;20083;-80
2023/01/07 10:01:18;;;;;;;1.73;0.70;;;;;;;;;;5037400;28;20440;-80
2023/01/07 10:03:51;;;;;;;1.00;0.70;;;;;;;;;;5046459;28;20049;-80
2023/01/07 10:06:25;;;;;;;0.50;0.40;;;;;;;;;;5048402;28;20519;-79
2023/01/07 10:09:15;;;;;;;0.40;0.40;;;;;;;;;;5045024;28;20057;-80
2023/01/07 10:11:49;;;;;;;0.82;0.60;;;;;;;;;;5049050;28;20086;-80
2023/01/07 10:14:33;;;;;;;1.33;0.80;;;;;;;;;;5039685;28;20059;-79
2023/01/07 10:17:06;;;;;;;0.45;0.45;;;;;;;;;;5058060;28;20053;-79
2023/01/07 10:19:40;;;;;;;0.65;0.65;;;;;;;;;;5047405;28;20057;-79
2023/01/07 10:22:16;;;;;;;1.47;0.97;;;;;;;;;;5047611;28;20092;-79
2023/01/07 10:24:47;;;;;;;0.60;0.50;;;;;;;;;;5045571;28;20084;-80
2023/01/07 10:27:16;;;;;;;1.35;0.68;;;;;;;;;;5035388;28;20126;-80
2023/01/07 10:29:47;;;;;;;1.98;0.88;;;;;;;;;;5046549;28;20585;-80
2023/01/07 10:32:16;;;;;;;2.05;0.98;;;;;;;;;;5055359;28;20432;-80
2023/01/07 10:34:46;;;;;;;0.80;0.80;;;;;;;;;;5044006;28;20444;-79
2023/01/07 10:37:18;;;;;;;1.17;0.93;;;;;;;;;;5054558;28;20059;-80
2023/01/07 10:39:51;;;;;;;1.15;0.80;;;;;;;;;;5049647;28;20421;-80
2023/01/07 10:42:24;;;;;;;2.50;0.98;;;;;;;;;;5047533;28;20076;-80
2023/01/07 10:45:20;;;;;;;1.13;0.60;;;;;;;;;;5046076;28;20159;-79
2023/01/07 10:47:56;;;;;;;1.63;0.40;;;;;;;;;;5012278;28;20172;-79
2023/01/07 10:50:33;;;;;;;0.57;0.57;;;;;;;;;;5045120;28;20091;-80
2023/01/07 10:53:10;;;;;;;2.85;0.82;;;;;;;;;;5044964;28;20053;-79
2023/01/07 10:55:45;;;;;;;0.47;0.47;;;;;;;;;;5048714;28;20059;-79
2023/01/07 10:58:14;;;;;;;1.35;0.90;;;;;;;;;;5044215;28;20129;-79
2023/01/07 11:00:42;;;;;;;1.00;0.80;;;;;;;;;;5039881;28;20128;-80
2023/01/07 11:03:16;;;;;;;0.75;0.70;;;;;;;;;;5041452;28;20045;-79
2023/01/07 11:05:46;;;;;;;0.30;0.30;;;;;;;;;;5042662;28;20501;-80
2023/01/07 11:08:20;;;;;;;1.00;0.65;;;;;;;;;;5044065;28;21119;-79
2023/01/07 11:10:49;;;;;;;1.42;0.55;;;;;;;;;;5036757;28;20059;-79
2023/01/07 11:13:21;;;;;;;0.52;0.52;;;;;;;;;;5043830;28;20080;-79
2023/01/07 11:15:53;;;;;;;1.98;1.25;;;;;;;;;;5043147;28;20049;-79
2023/01/07 11:18:22;;;;;;;1.38;0.60;;;;;;;;;;5037952;28;20524;-79
2023/01/07 11:20:51;;;;;;;1.58;0.60;;;;;;;;;;5045329;28;20489;-79
2023/01/07 11:23:38;;;;;;;1.65;0.63;;;;;;;;;;5034488;28;20087;-79
2023/01/07 11:26:11;;;;;;;0.80;0.57;;;;;;;;;;5035179;28;20410;-79
2023/01/07 11:28:42;;;;;;;1.10;0.40;;;;;;;;;;5037650;28;20049;-79
2023/01/07 11:31:10;;;;;;;1.52;0.70;;;;;;;;;;5038051;28;20049;-80
2023/01/07 11:33:40;;;;;;;0.57;0.52;;;;;;;;;;5043154;28;20099;-79
2023/01/07 11:36:39;;;;;;;0.70;0.55;;;;;;;;;;5043782;28;20061;-79
2023/01/07 11:39:09;;;;;;;2.00;0.82;;;;;;;;;;5026878;28;20056;-80
2023/01/07 11:41:51;;;;;;;1.40;1.00;;;;;;;;;;5042756;28;20052;-80
2023/01/07 11:44:20;;;;;;;0.90;0.45;;;;;;;;;;5048426;28;20067;-79
2023/01/07 11:46:48;;;;;;;1.92;0.75;;;;;;;;;;5035595;28;20766;-80
2023/01/07 11:49:25;;;;;;;1.60;0.73;;;;;;;;;;5037354;28;20128;-80
2023/01/07 11:51:54;;;;;;;0.77;0.68;;;;;;;;;;5032001;28;20608;-79
2023/01/07 11:54:23;;;;;;;1.35;0.45;;;;;;;;;;5035765;28;20516;-79
2023/01/07 11:56:53;;;;;;;0.40;0.40;;;;;;;;;;5035911;28;20048;-79
2023/01/07 11:59:29;;;;;;;0.57;0.57;;;;;;;;;;5041149;28;20064;-80
2023/01/07 12:01:59;;;;;;;0.30;0.30;;;;;;;;;;5042529;28;20075;-80
2023/01/07 12:04:29;;;;;;;0.75;0.75;;;;;;;;;;5039796;28;20052;-79
2023/01/07 12:06:58;;;;;;;2.00;0.73;;;;;;;;;;5039703;28;20064;-79
2023/01/07 12:09:37;;;;;;;2.83;0.80;;;;;;;;;;5042587;28;20521;-80
2023/01/07 12:14:56;;;;;;;1.08;0.50;;;;;;;;;;5049565;28;20119;-79
2023/01/07 12:17:25;;;;;;;1.55;0.68;;;;;;;;;;5041813;28;20144;-79
2023/01/07 12:20:15;;;;;;;1.80;0.70;;;;;;;;;;5045339;28;20044;-79
2023/01/07 12:22:47;;;;;;;1.08;0.60;;;;;;;;;;5007365;28;20042;-79
2023/01/07 12:25:24;;;;;;;1.00;0.38;;;;;;;;;;5035389;28;20044;-78
2023/01/07 12:27:58;;;;;;;0.68;0.50;;;;;;;;;;5034854;28;20045;-79
2023/01/07 12:30:35;;;;;;;1.27;0.40;;;;;;;;;;5043505;28;20135;-79
2023/01/07 12:33:08;;;;;;;0.43;0.43;;;;;;;;;;5038725;28;20081;-79
2023/01/07 12:35:40;;;;;;;0.30;0.30;;;;;;;;;;5044830;28;20079;-79
2023/01/07 12:38:11;;;;;;;1.13;0.73;;;;;;;;;;5042786;28;20049;-79
2023/01/07 12:40:42;;;;;;;0.60;0.60;;;;;;;;;;5037807;28;20056;-78
2023/01/07 12:43:15;;;;;;;0.43;0.43;;;;;;;;;;5036862;28;20085;-79
2023/01/07 12:45:46;;;;;;;0.20;0.20;;;;;;;;;;5038389;28;20537;-79
2023/01/07 12:48:19;;;;;;;0.35;0.35;;;;;;;;;;5040037;28;20053;-79
2023/01/07 12:50:49;;;;;;;0.47;0.47;;;;;;;;;;5040805;28;20047;-79
2023/01/07 12:53:21;;;;;;;0.93;0.88;;;;;;;;;;5039628;28;20041;-79
2023/01/07 12:55:52;;;;;;;1.05;0.52;;;;;;;;;;5048529;28;20055;-79
2023/01/07 12:58:23;;;;;;;1.40;0.85;;;;;;;;;;5051810;28;20543;-80
2023/01/07 13:00:55;;;;;;;0.50;0.35;;;;;;;;;;5047056;28;20195;-79
2023/01/07 13:03:27;;;;;;;1.55;0.55;;;;;;;;;;5050686;28;21027;-79
2023/01/07 13:05:57;;;;;;;1.48;0.52;;;;;;;;;;5058311;28;20548;-79
2023/01/07 13:08:29;;;;;;;1.25;0.30;;;;;;;;;;5038633;28;20581;-79
2023/01/07 13:11:00;;;;;;;0.47;0.40;;;;;;;;;;5044192;28;20056;-79
2023/01/07 13:13:32;;;;;;;1.08;0.52;;;;;;;;;;5050502;28;20052;-79
2023/01/07 13:16:01;;;;;;;0.40;0.32;;;;;;;;;;5047024;28;20076;-79
2023/01/07 13:18:29;;;;;;;1.65;0.65;;;;;;;;;;5047055;28;20084;-80
2023/01/07 13:21:06;;;;;;;0.32;0.32;;;;;;;;;;5042269;28;20084;-81
2023/01/07 13:23:52;;;;;;;2.10;0.40;;;;;;;;;;5048665;28;20453;-87
2023/01/07 13:26:26;;;;;;;0.82;0.82;;;;;;;;;;5044775;28;20045;-87
2023/01/07 13:29:16;;;;;;;0.65;0.40;;;;;;;;;;5043918;28;20049;-88
2023/01/07 13:32:08;;;;;;;0.95;0.43;;;;;;;;;;5018389;28;20057;-87
2023/01/07 13:34:41;;;;;;;0.98;0.50;;;;;;;;;;5047425;28;20480;-87
2023/01/07 13:37:19;;;;;;;0.77;0.30;;;;;;;;;;5054692;28;20056;-87
2023/01/07 13:39:56;;;;;;;0.90;0.57;;;;;;;;;;5043872;28;20621;-87
2023/01/07 13:42:30;;;;;;;10.13;0.55;;;;;;;;;;5052435;28;20045;-87
2023/01/07 13:45:02;;;;;;;0.43;0.40;;;;;;;;;;5040613;28;20060;-87
2023/01/07 13:47:46;;;;;;;0.57;0.30;;;;;;;;;;5041026;28;20049;-88
2023/01/07 13:50:24;;;;;;;0.20;0.20;;;;;;;;;;5026560;28;20092;-87
2023/01/07 13:52:57;;;;;;;0.65;0.38;;;;;;;;;;5048012;28;20122;-87
2023/01/07 13:55:38;;;;;;;1.30;0.35;;;;;;;;;;5048353;28;20044;-87
2023/01/07 13:58:25;;;;;;;0.60;0.40;;;;;;;;;;5038629;28;20045;-86
2023/01/07 14:01:04;;;;;;;0.20;0.20;;;;;;;;;;5043655;28;20609;-87
2023/01/07 14:03:49;;;;;;;0.50;0.40;;;;;;;;;;5037105;28;20549;-87
2023/01/07 14:06:42;;;;;;;0.52;0.50;;;;;;;;;;5045087;28;20048;-87
2023/01/07 14:09:25;;;;;;;0.60;0.40;;;;;;;;;;5040621;28;20451;-87
2023/01/07 14:12:18;;;;;;;0.45;0.40;;;;;;;;;;5047839;28;20111;-87
2023/01/07 14:14:49;;;;;;;0.20;0.20;;;;;;;;;;5040532;28;20096;-87
2023/01/07 14:17:23;;;;;;;0.13;0.13;;;;;;;;;;5049625;28;20052;-87
2023/01/07 14:19:58;;;;;;;0.55;0.40;;;;;;;;;;5044385;28;20053;-87
2023/01/07 14:22:30;;;;;;;0.35;0.35;;;;;;;;;;5047497;28;20148;-87
2023/01/07 14:25:04;;;;;;;0.80;0.50;;;;;;;;;;5040369;28;20060;-87
2023/01/07 14:27:45;;;;;;;0.47;0.45;;;;;;;;;;5036144;28;20055;-87
2023/01/07 14:30:19;;;;;;;0.75;0.60;;;;;;;;;;5024987;28;20049;-87
2023/01/07 14:32:54;;;;;;;0.40;0.35;;;;;;;;;;5042069;28;20056;-87
2023/01/07 14:35:22;;;;;;;;;;;;;;;;;;5041693;28;20057;-88
2023/01/07 14:37:52;;;;;;;2.35;0.55;;;;;;;;;;5020629;28;20012;-86
2023/01/07 14:40:36;;;;;;;1.17;1.08;;;;;;;;;;5050470;28;20055;-88
2023/01/07 14:43:24;;;;;;;0.50;0.40;;;;;;;;;;5029768;28;20131;-88
2023/01/07 14:45:53;;;;;;;0.20;0.20;;;;;;;;;;5042173;28;20052;-89
2023/01/07 14:48:32;;;;;;;0.55;0.40;;;;;;;;;;5035890;28;20049;-88
2023/01/07 14:51:27;;;;;;;0.10;0.10;;;;;;;;;;5038396;28;20056;-89
2023/01/07 14:54:15;;;;;;;1.38;0.50;;;;;;;;;;5030515;28;20064;-89
2023/01/07 14:56:50;;;;;;;0.38;0.38;;;;;;;;;;5042962;28;20048;-92
2023/01/07 14:59:25;;;;;;;2.80;0.68;;;;;;;;;;5040549;28;20512;-89
2023/01/07 15:02:16;;;;;;;0.95;0.40;;;;;;;;;;5051036;28;20956;-90
2023/01/07 15:04:59;;;;;;;0.20;0.20;;;;;;;;;;5035253;28;20057;-90
2023/01/07 15:07:30;;;;;;;0.38;0.35;;;;;;;;;;5029995;28;20049;-90
2023/01/07 15:18:23;;;;;;;0.55;0.47;;;;;;;;;;5044780;28;20099;-91
2023/01/07 15:20:58;;;;;;;0.38;0.38;;;;;;;;;;5014878;28;20041;-89
2023/01/07 15:23:28;;;;;;;0.65;0.65;;;;;;;;;;5044715;28;20045;-89